sensor_id;sensor_type;location;lat;lon;timestamp;P1;durP1;ratioP1;P2;durP2;ratioP2
75680;SDS011;64294;49.176;16.626;2022-12-28T00:02:08;14.85;;;7.45;;
75680;SDS011;64294;49.176;16.626;2022-12-28T00:04:33;16.83;;;7.75;;
75680;SDS011;64294;49.176;16.626;2022-12-28T00:06:59;19.67;;;9.75;;
75680;SDS011;64294;49.176;16.626;2022-12-28T00:09:24;15.70;;;8.30;;
75680;SDS011;64294;49.176;16.626;2022-12-28T00:11:50;18.35;;;8.85;;
75680;SDS011;64294;49.176;16.626;2022-12-28T00:14:15;17.70;;;8.13;;
75680;SDS011;64294;49.176;16.626;2022-12-28T00:16:41;13.63;;;8.32;;
75680;SDS011;64294;49.176;16.626;2022-12-28T00:19:11;15.82;;;8.70;;
75680;SDS011;64294;49.176;16.626;2022-12-28T00:21:40;15.90;;;7.43;;
75680;SDS011;64294;49.176;16.626;2022-12-28T00:24:07;18.50;;;8.57;;
75680;SDS011;64294;49.176;16.626;2022-12-28T00:26:33;17.98;;;8.73;;
75680;SDS011;64294;49.176;16.626;2022-12-28T00:29:00;15.18;;;8.07;;
75680;SDS011;64294;49.176;16.626;2022-12-28T00:31:29;19.05;;;8.25;;
75680;SDS011;64294;49.176;16.626;2022-12-28T00:33:55;20.95;;;8.85;;
75680;SDS011;64294;49.176;16.626;2022-12-28T00:36:20;17.40;;;7.95;;
75680;SDS011;64294;49.176;16.626;2022-12-28T00:38:46;17.42;;;7.72;;
75680;SDS011;64294;49.176;16.626;2022-12-28T00:41:11;18.80;;;7.90;;
75680;SDS011;64294;49.176;16.626;2022-12-28T00:43:36;15.15;;;7.60;;
75680;SDS011;64294;49.176;16.626;2022-12-28T00:46:02;15.32;;;7.95;;
75680;SDS011;64294;49.176;16.626;2022-12-28T00:48:28;15.75;;;7.32;;
75680;SDS011;64294;49.176;16.626;2022-12-28T00:51:00;17.42;;;7.47;;
75680;SDS011;64294;49.176;16.626;2022-12-28T00:53:30;17.30;;;7.05;;
75680;SDS011;64294;49.176;16.626;2022-12-28T00:56:03;14.93;;;7.43;;
75680;SDS011;64294;49.176;16.626;2022-12-28T00:58:29;14.50;;;7.20;;
75680;SDS011;64294;49.176;16.626;2022-12-28T01:00:54;14.20;;;7.25;;
75680;SDS011;64294;49.176;16.626;2022-12-28T01:03:20;14.60;;;6.78;;
75680;SDS011;64294;49.176;16.626;2022-12-28T01:05:45;12.50;;;6.25;;
75680;SDS011;64294;49.176;16.626;2022-12-28T01:08:11;16.65;;;6.85;;
75680;SDS011;64294;49.176;16.626;2022-12-28T01:10:37;16.50;;;6.97;;
75680;SDS011;64294;49.176;16.626;2022-12-28T01:13:03;13.70;;;7.55;;
75680;SDS011;64294;49.176;16.626;2022-12-28T01:15:28;18.65;;;7.90;;
75680;SDS011;64294;49.176;16.626;2022-12-28T01:17:54;15.93;;;7.82;;
75680;SDS011;64294;49.176;16.626;2022-12-28T01:20:19;13.57;;;7.30;;
75680;SDS011;64294;49.176;16.626;2022-12-28T01:22:44;13.55;;;6.82;;
75680;SDS011;64294;49.176;16.626;2022-12-28T01:25:10;15.30;;;7.68;;
75680;SDS011;64294;49.176;16.626;2022-12-28T01:27:37;15.23;;;7.18;;
75680;SDS011;64294;49.176;16.626;2022-12-28T01:30:04;13.55;;;6.88;;
75680;SDS011;64294;49.176;16.626;2022-12-28T01:32:30;19.88;;;7.40;;
75680;SDS011;64294;49.176;16.626;2022-12-28T01:34:55;14.00;;;6.78;;
75680;SDS011;64294;49.176;16.626;2022-12-28T01:37:21;11.43;;;6.75;;
75680;SDS011;64294;49.176;16.626;2022-12-28T01:39:47;40.20;;;14.48;;
75680;SDS011;64294;49.176;16.626;2022-12-28T01:42:16;41.00;;;14.75;;
75680;SDS011;64294;49.176;16.626;2022-12-28T01:44:46;16.48;;;7.32;;
75680;SDS011;64294;49.176;16.626;2022-12-28T01:47:14;15.35;;;6.72;;
75680;SDS011;64294;49.176;16.626;2022-12-28T01:50:00;14.55;;;6.38;;
75680;SDS011;64294;49.176;16.626;2022-12-28T01:52:36;14.90;;;7.00;;
75680;SDS011;64294;49.176;16.626;2022-12-28T01:57:29;16.08;;;7.20;;
75680;SDS011;64294;49.176;16.626;2022-12-28T02:00:02;14.15;;;6.38;;
75680;SDS011;64294;49.176;16.626;2022-12-28T02:02:32;13.27;;;6.88;;
75680;SDS011;64294;49.176;16.626;2022-12-28T02:05:00;15.70;;;7.07;;
75680;SDS011;64294;49.176;16.626;2022-12-28T02:07:34;15.00;;;6.60;;
75680;SDS011;64294;49.176;16.626;2022-12-28T02:10:21;15.40;;;6.88;;
75680;SDS011;64294;49.176;16.626;2022-12-28T02:12:47;13.63;;;7.00;;
75680;SDS011;64294;49.176;16.626;2022-12-28T02:15:13;11.82;;;6.57;;
75680;SDS011;64294;49.176;16.626;2022-12-28T02:17:39;13.13;;;7.05;;
75680;SDS011;64294;49.176;16.626;2022-12-28T02:20:04;15.88;;;7.30;;
75680;SDS011;64294;49.176;16.626;2022-12-28T02:30:42;18.30;;;7.60;;
75680;SDS011;64294;49.176;16.626;2022-12-28T02:35:56;15.82;;;7.03;;
75680;SDS011;64294;49.176;16.626;2022-12-28T02:38:27;12.48;;;6.43;;
75680;SDS011;64294;49.176;16.626;2022-12-28T02:41:02;11.85;;;6.65;;
75680;SDS011;64294;49.176;16.626;2022-12-28T02:43:33;14.52;;;6.55;;
75680;SDS011;64294;49.176;16.626;2022-12-28T02:46:09;16.50;;;7.47;;
75680;SDS011;64294;49.176;16.626;2022-12-28T02:48:54;15.63;;;7.13;;
75680;SDS011;64294;49.176;16.626;2022-12-28T02:51:56;19.65;;;8.30;;
75680;SDS011;64294;49.176;16.626;2022-12-28T03:00:14;14.13;;;7.65;;
75680;SDS011;64294;49.176;16.626;2022-12-28T03:08:16;19.55;;;8.93;;
75680;SDS011;64294;49.176;16.626;2022-12-28T03:13:48;17.50;;;8.93;;
75680;SDS011;64294;49.176;16.626;2022-12-28T03:19:20;22.85;;;8.95;;
75680;SDS011;64294;49.176;16.626;2022-12-28T03:22:08;21.35;;;9.43;;
75680;SDS011;64294;49.176;16.626;2022-12-28T03:24:54;17.25;;;8.80;;
75680;SDS011;64294;49.176;16.626;2022-12-28T03:27:39;21.48;;;10.05;;
75680;SDS011;64294;49.176;16.626;2022-12-28T03:30:25;20.23;;;9.30;;
75680;SDS011;64294;49.176;16.626;2022-12-28T03:35:41;22.52;;;9.52;;
75680;SDS011;64294;49.176;16.626;2022-12-28T03:38:17;19.02;;;9.55;;
75680;SDS011;64294;49.176;16.626;2022-12-28T03:40:52;19.88;;;9.32;;
75680;SDS011;64294;49.176;16.626;2022-12-28T03:43:26;21.45;;;8.88;;
75680;SDS011;64294;49.176;16.626;2022-12-28T03:48:40;18.27;;;9.77;;
75680;SDS011;64294;49.176;16.626;2022-12-28T03:51:08;18.42;;;9.88;;
75680;SDS011;64294;49.176;16.626;2022-12-28T03:53:41;22.20;;;9.70;;
75680;SDS011;64294;49.176;16.626;2022-12-28T03:58:33;21.08;;;9.32;;
75680;SDS011;64294;49.176;16.626;2022-12-28T04:00:59;22.70;;;9.65;;
75680;SDS011;64294;49.176;16.626;2022-12-28T04:03:24;25.98;;;10.07;;
75680;SDS011;64294;49.176;16.626;2022-12-28T04:05:49;23.58;;;10.70;;
75680;SDS011;64294;49.176;16.626;2022-12-28T04:08:15;28.60;;;10.93;;
75680;SDS011;64294;49.176;16.626;2022-12-28T04:10:40;19.33;;;10.23;;
75680;SDS011;64294;49.176;16.626;2022-12-28T04:13:05;22.60;;;10.38;;
75680;SDS011;64294;49.176;16.626;2022-12-28T04:15:31;21.33;;;10.20;;
75680;SDS011;64294;49.176;16.626;2022-12-28T04:17:58;18.02;;;9.75;;
75680;SDS011;64294;49.176;16.626;2022-12-28T04:20:25;21.88;;;10.18;;
75680;SDS011;64294;49.176;16.626;2022-12-28T04:22:50;25.35;;;10.38;;
75680;SDS011;64294;49.176;16.626;2022-12-28T04:25:15;24.98;;;11.05;;
75680;SDS011;64294;49.176;16.626;2022-12-28T04:27:41;24.20;;;10.50;;
75680;SDS011;64294;49.176;16.626;2022-12-28T04:30:06;23.73;;;10.88;;
75680;SDS011;64294;49.176;16.626;2022-12-28T04:32:33;17.95;;;10.23;;
75680;SDS011;64294;49.176;16.626;2022-12-28T04:34:59;20.40;;;10.50;;
75680;SDS011;64294;49.176;16.626;2022-12-28T04:37:25;22.20;;;9.90;;
75680;SDS011;64294;49.176;16.626;2022-12-28T04:39:50;19.98;;;10.45;;
75680;SDS011;64294;49.176;16.626;2022-12-28T04:42:16;23.40;;;10.75;;
75680;SDS011;64294;49.176;16.626;2022-12-28T04:44:41;20.60;;;9.80;;
75680;SDS011;64294;49.176;16.626;2022-12-28T04:47:06;26.83;;;11.20;;
75680;SDS011;64294;49.176;16.626;2022-12-28T04:49:32;23.40;;;11.00;;
75680;SDS011;64294;49.176;16.626;2022-12-28T04:51:57;22.20;;;10.75;;
75680;SDS011;64294;49.176;16.626;2022-12-28T04:54:23;24.25;;;11.15;;
75680;SDS011;64294;49.176;16.626;2022-12-28T04:56:48;19.05;;;9.75;;
75680;SDS011;64294;49.176;16.626;2022-12-28T04:59:13;19.92;;;10.18;;
75680;SDS011;64294;49.176;16.626;2022-12-28T05:01:39;22.00;;;10.50;;
75680;SDS011;64294;49.176;16.626;2022-12-28T05:04:04;23.45;;;11.15;;
75680;SDS011;64294;49.176;16.626;2022-12-28T05:06:30;24.67;;;10.85;;
75680;SDS011;64294;49.176;16.626;2022-12-28T05:08:55;26.10;;;12.10;;
75680;SDS011;64294;49.176;16.626;2022-12-28T05:11:22;25.02;;;12.15;;
75680;SDS011;64294;49.176;16.626;2022-12-28T05:13:49;25.08;;;12.30;;
75680;SDS011;64294;49.176;16.626;2022-12-28T05:16:16;23.60;;;10.80;;
75680;SDS011;64294;49.176;16.626;2022-12-28T05:18:43;23.77;;;11.05;;
75680;SDS011;64294;49.176;16.626;2022-12-28T05:21:09;25.17;;;10.63;;
75680;SDS011;64294;49.176;16.626;2022-12-28T05:23:37;20.90;;;9.75;;
75680;SDS011;64294;49.176;16.626;2022-12-28T05:26:04;21.88;;;9.80;;
75680;SDS011;64294;49.176;16.626;2022-12-28T05:28:30;21.25;;;10.68;;
75680;SDS011;64294;49.176;16.626;2022-12-28T05:31:00;23.60;;;10.80;;
75680;SDS011;64294;49.176;16.626;2022-12-28T05:33:28;19.13;;;9.48;;
75680;SDS011;64294;49.176;16.626;2022-12-28T05:35:54;22.50;;;9.32;;
75680;SDS011;64294;49.176;16.626;2022-12-28T05:38:19;19.90;;;8.77;;
75680;SDS011;64294;49.176;16.626;2022-12-28T05:40:45;20.35;;;9.07;;
75680;SDS011;64294;49.176;16.626;2022-12-28T05:43:10;16.08;;;8.30;;
75680;SDS011;64294;49.176;16.626;2022-12-28T05:45:36;19.02;;;8.88;;
75680;SDS011;64294;49.176;16.626;2022-12-28T05:48:01;16.73;;;8.40;;
75680;SDS011;64294;49.176;16.626;2022-12-28T05:50:27;16.77;;;8.15;;
75680;SDS011;64294;49.176;16.626;2022-12-28T05:52:52;17.10;;;7.82;;
75680;SDS011;64294;49.176;16.626;2022-12-28T05:55:17;15.68;;;7.50;;
75680;SDS011;64294;49.176;16.626;2022-12-28T05:57:43;19.25;;;8.50;;
75680;SDS011;64294;49.176;16.626;2022-12-28T06:00:08;16.88;;;7.82;;
75680;SDS011;64294;49.176;16.626;2022-12-28T06:02:34;16.58;;;8.45;;
75680;SDS011;64294;49.176;16.626;2022-12-28T06:05:00;18.35;;;8.45;;
75680;SDS011;64294;49.176;16.626;2022-12-28T06:07:25;17.13;;;8.02;;
75680;SDS011;64294;49.176;16.626;2022-12-28T06:09:50;15.65;;;8.05;;
75680;SDS011;64294;49.176;16.626;2022-12-28T06:12:16;15.73;;;7.47;;
75680;SDS011;64294;49.176;16.626;2022-12-28T06:14:41;16.73;;;7.43;;
75680;SDS011;64294;49.176;16.626;2022-12-28T06:17:07;17.70;;;8.18;;
75680;SDS011;64294;49.176;16.626;2022-12-28T06:19:32;17.30;;;8.05;;
75680;SDS011;64294;49.176;16.626;2022-12-28T06:21:57;20.13;;;7.88;;
75680;SDS011;64294;49.176;16.626;2022-12-28T06:24:23;17.02;;;8.50;;
75680;SDS011;64294;49.176;16.626;2022-12-28T06:26:48;17.95;;;8.13;;
75680;SDS011;64294;49.176;16.626;2022-12-28T06:29:14;29.90;;;8.50;;
75680;SDS011;64294;49.176;16.626;2022-12-28T06:31:40;21.88;;;8.90;;
75680;SDS011;64294;49.176;16.626;2022-12-28T06:34:10;18.27;;;8.93;;
75680;SDS011;64294;49.176;16.626;2022-12-28T06:36:40;19.67;;;8.80;;
75680;SDS011;64294;49.176;16.626;2022-12-28T06:39:08;17.20;;;8.88;;
75680;SDS011;64294;49.176;16.626;2022-12-28T06:41:35;19.77;;;9.25;;
75680;SDS011;64294;49.176;16.626;2022-12-28T06:44:01;20.15;;;9.30;;
75680;SDS011;64294;49.176;16.626;2022-12-28T06:46:29;21.33;;;8.77;;
75680;SDS011;64294;49.176;16.626;2022-12-28T06:48:55;22.55;;;9.38;;
75680;SDS011;64294;49.176;16.626;2022-12-28T06:51:21;28.67;;;9.35;;
75680;SDS011;64294;49.176;16.626;2022-12-28T06:53:48;23.25;;;9.63;;
75680;SDS011;64294;49.176;16.626;2022-12-28T06:56:25;23.38;;;9.02;;
75680;SDS011;64294;49.176;16.626;2022-12-28T06:58:52;24.83;;;9.43;;
75680;SDS011;64294;49.176;16.626;2022-12-28T07:03:45;20.85;;;9.55;;
75680;SDS011;64294;49.176;16.626;2022-12-28T07:06:12;34.97;;;9.45;;
75680;SDS011;64294;49.176;16.626;2022-12-28T07:08:40;23.98;;;8.90;;
75680;SDS011;64294;49.176;16.626;2022-12-28T07:11:06;19.67;;;8.95;;
75680;SDS011;64294;49.176;16.626;2022-12-28T07:13:34;19.40;;;9.65;;
75680;SDS011;64294;49.176;16.626;2022-12-28T07:16:00;26.25;;;9.73;;
75680;SDS011;64294;49.176;16.626;2022-12-28T07:18:27;24.63;;;9.63;;
75680;SDS011;64294;49.176;16.626;2022-12-28T07:21:00;29.27;;;9.70;;
75680;SDS011;64294;49.176;16.626;2022-12-28T07:23:27;28.45;;;10.20;;
75680;SDS011;64294;49.176;16.626;2022-12-28T07:25:55;22.83;;;8.57;;
75680;SDS011;64294;49.176;16.626;2022-12-28T07:28:31;19.73;;;8.57;;
75680;SDS011;64294;49.176;16.626;2022-12-28T07:30:57;30.23;;;8.57;;
75680;SDS011;64294;49.176;16.626;2022-12-28T07:33:22;28.60;;;8.38;;
75680;SDS011;64294;49.176;16.626;2022-12-28T07:35:48;21.27;;;8.10;;
75680;SDS011;64294;49.176;16.626;2022-12-28T07:38:13;24.02;;;8.65;;
75680;SDS011;64294;49.176;16.626;2022-12-28T07:40:39;19.00;;;8.27;;
75680;SDS011;64294;49.176;16.626;2022-12-28T07:43:04;16.10;;;8.43;;
75680;SDS011;64294;49.176;16.626;2022-12-28T07:45:30;17.55;;;8.13;;
75680;SDS011;64294;49.176;16.626;2022-12-28T07:47:55;16.52;;;8.35;;
75680;SDS011;64294;49.176;16.626;2022-12-28T07:50:21;22.77;;;8.52;;
75680;SDS011;64294;49.176;16.626;2022-12-28T07:52:46;17.30;;;8.27;;
75680;SDS011;64294;49.176;16.626;2022-12-28T07:55:12;19.42;;;9.02;;
75680;SDS011;64294;49.176;16.626;2022-12-28T07:57:37;17.88;;;8.48;;
75680;SDS011;64294;49.176;16.626;2022-12-28T08:00:03;20.55;;;8.68;;
75680;SDS011;64294;49.176;16.626;2022-12-28T08:02:29;17.13;;;9.05;;
75680;SDS011;64294;49.176;16.626;2022-12-28T08:04:54;19.25;;;9.15;;
75680;SDS011;64294;49.176;16.626;2022-12-28T08:07:19;47.25;;;18.67;;
75680;SDS011;64294;49.176;16.626;2022-12-28T08:09:45;17.70;;;9.38;;
75680;SDS011;64294;49.176;16.626;2022-12-28T08:12:10;16.65;;;9.57;;
75680;SDS011;64294;49.176;16.626;2022-12-28T08:14:35;17.85;;;9.40;;
75680;SDS011;64294;49.176;16.626;2022-12-28T08:17:02;18.02;;;9.60;;
75680;SDS011;64294;49.176;16.626;2022-12-28T08:19:27;21.25;;;9.77;;
75680;SDS011;64294;49.176;16.626;2022-12-28T08:21:52;23.50;;;11.00;;
75680;SDS011;64294;49.176;16.626;2022-12-28T08:24:18;20.67;;;10.93;;
75680;SDS011;64294;49.176;16.626;2022-12-28T08:26:44;23.67;;;10.73;;
75680;SDS011;64294;49.176;16.626;2022-12-28T08:29:15;21.70;;;9.93;;
75680;SDS011;64294;49.176;16.626;2022-12-28T08:31:43;20.33;;;9.45;;
75680;SDS011;64294;49.176;16.626;2022-12-28T08:34:11;18.20;;;10.05;;
75680;SDS011;64294;49.176;16.626;2022-12-28T08:36:38;19.90;;;9.45;;
75680;SDS011;64294;49.176;16.626;2022-12-28T08:39:04;21.73;;;10.02;;
75680;SDS011;64294;49.176;16.626;2022-12-28T08:41:30;23.30;;;10.43;;
75680;SDS011;64294;49.176;16.626;2022-12-28T08:43:56;18.80;;;10.32;;
75680;SDS011;64294;49.176;16.626;2022-12-28T08:46:31;23.17;;;10.57;;
75680;SDS011;64294;49.176;16.626;2022-12-28T08:48:58;21.48;;;9.80;;
75680;SDS011;64294;49.176;16.626;2022-12-28T08:53:58;20.77;;;9.82;;
75680;SDS011;64294;49.176;16.626;2022-12-28T08:56:25;21.30;;;10.43;;
75680;SDS011;64294;49.176;16.626;2022-12-28T08:58:52;21.30;;;10.18;;
75680;SDS011;64294;49.176;16.626;2022-12-28T09:01:20;25.40;;;10.63;;
75680;SDS011;64294;49.176;16.626;2022-12-28T09:03:48;21.23;;;10.50;;
75680;SDS011;64294;49.176;16.626;2022-12-28T09:06:16;22.02;;;10.35;;
75680;SDS011;64294;49.176;16.626;2022-12-28T09:08:43;25.33;;;10.57;;
75680;SDS011;64294;49.176;16.626;2022-12-28T09:11:10;20.02;;;10.68;;
75680;SDS011;64294;49.176;16.626;2022-12-28T09:13:37;25.67;;;11.63;;
75680;SDS011;64294;49.176;16.626;2022-12-28T09:16:04;20.90;;;11.32;;
75680;SDS011;64294;49.176;16.626;2022-12-28T09:18:32;21.08;;;11.15;;
75680;SDS011;64294;49.176;16.626;2022-12-28T09:21:08;19.08;;;10.85;;
75680;SDS011;64294;49.176;16.626;2022-12-28T09:23:37;20.98;;;11.13;;
75680;SDS011;64294;49.176;16.626;2022-12-28T09:26:04;22.35;;;11.63;;
75680;SDS011;64294;49.176;16.626;2022-12-28T09:28:30;25.08;;;11.93;;
75680;SDS011;64294;49.176;16.626;2022-12-28T09:30:56;21.13;;;11.25;;
75680;SDS011;64294;49.176;16.626;2022-12-28T09:33:21;20.73;;;11.23;;
75680;SDS011;64294;49.176;16.626;2022-12-28T09:36:05;23.52;;;11.38;;
75680;SDS011;64294;49.176;16.626;2022-12-28T09:38:31;25.75;;;11.85;;
75680;SDS011;64294;49.176;16.626;2022-12-28T09:40:56;19.38;;;10.68;;
75680;SDS011;64294;49.176;16.626;2022-12-28T09:43:22;24.27;;;11.68;;
75680;SDS011;64294;49.176;16.626;2022-12-28T09:45:50;21.60;;;11.27;;
75680;SDS011;64294;49.176;16.626;2022-12-28T09:48:19;23.25;;;10.63;;
75680;SDS011;64294;49.176;16.626;2022-12-28T09:50:47;17.27;;;9.30;;
75680;SDS011;64294;49.176;16.626;2022-12-28T09:56:05;22.02;;;9.55;;
75680;SDS011;64294;49.176;16.626;2022-12-28T09:58:52;24.80;;;9.15;;
75680;SDS011;64294;49.176;16.626;2022-12-28T10:01:19;46.45;;;19.33;;
75680;SDS011;64294;49.176;16.626;2022-12-28T10:03:46;37.08;;;16.48;;
75680;SDS011;64294;49.176;16.626;2022-12-28T10:06:16;27.40;;;12.90;;
75680;SDS011;64294;49.176;16.626;2022-12-28T10:08:52;21.83;;;11.88;;
75680;SDS011;64294;49.176;16.626;2022-12-28T10:11:21;21.90;;;11.95;;
75680;SDS011;64294;49.176;16.626;2022-12-28T10:13:54;20.85;;;10.68;;
75680;SDS011;64294;49.176;16.626;2022-12-28T10:16:22;21.60;;;10.10;;
75680;SDS011;64294;49.176;16.626;2022-12-28T10:18:50;19.95;;;11.18;;
75680;SDS011;64294;49.176;16.626;2022-12-28T10:21:17;23.70;;;10.18;;
75680;SDS011;64294;49.176;16.626;2022-12-28T10:23:45;19.05;;;10.68;;
75680;SDS011;64294;49.176;16.626;2022-12-28T10:26:15;17.50;;;9.90;;
75680;SDS011;64294;49.176;16.626;2022-12-28T10:28:50;21.10;;;10.00;;
75680;SDS011;64294;49.176;16.626;2022-12-28T10:33:56;25.23;;;9.20;;
75680;SDS011;64294;49.176;16.626;2022-12-28T10:36:22;20.15;;;8.98;;
75680;SDS011;64294;49.176;16.626;2022-12-28T10:38:49;18.88;;;8.35;;
75680;SDS011;64294;49.176;16.626;2022-12-28T10:41:18;20.27;;;8.40;;
75680;SDS011;64294;49.176;16.626;2022-12-28T10:43:45;14.45;;;7.97;;
75680;SDS011;64294;49.176;16.626;2022-12-28T10:46:16;18.33;;;8.45;;
75680;SDS011;64294;49.176;16.626;2022-12-28T10:48:50;21.70;;;9.02;;
75680;SDS011;64294;49.176;16.626;2022-12-28T10:51:19;19.17;;;9.32;;
75680;SDS011;64294;49.176;16.626;2022-12-28T10:53:52;16.67;;;8.20;;
75680;SDS011;64294;49.176;16.626;2022-12-28T10:56:31;19.63;;;7.60;;
75680;SDS011;64294;49.176;16.626;2022-12-28T11:01:39;21.80;;;8.75;;
75680;SDS011;64294;49.176;16.626;2022-12-28T11:04:07;12.82;;;7.25;;
75680;SDS011;64294;49.176;16.626;2022-12-28T11:09:21;18.77;;;8.48;;
75680;SDS011;64294;49.176;16.626;2022-12-28T11:11:49;14.73;;;7.97;;
75680;SDS011;64294;49.176;16.626;2022-12-28T11:14:29;14.88;;;7.68;;
75680;SDS011;64294;49.176;16.626;2022-12-28T11:16:55;26.05;;;7.80;;
75680;SDS011;64294;49.176;16.626;2022-12-28T11:19:22;33.03;;;8.57;;
75680;SDS011;64294;49.176;16.626;2022-12-28T11:21:49;24.58;;;8.02;;
75680;SDS011;64294;49.176;16.626;2022-12-28T11:24:16;23.05;;;8.50;;
75680;SDS011;64294;49.176;16.626;2022-12-28T11:26:43;20.33;;;7.95;;
75680;SDS011;64294;49.176;16.626;2022-12-28T11:29:13;16.15;;;7.22;;
75680;SDS011;64294;49.176;16.626;2022-12-28T11:31:43;15.50;;;7.35;;
75680;SDS011;64294;49.176;16.626;2022-12-28T11:34:17;15.02;;;7.50;;
75680;SDS011;64294;49.176;16.626;2022-12-28T11:36:47;12.65;;;7.07;;
75680;SDS011;64294;49.176;16.626;2022-12-28T11:41:51;15.20;;;7.05;;
75680;SDS011;64294;49.176;16.626;2022-12-28T11:44:18;13.38;;;7.60;;
75680;SDS011;64294;49.176;16.626;2022-12-28T11:49:32;22.48;;;8.05;;
75680;SDS011;64294;49.176;16.626;2022-12-28T11:54:59;13.65;;;7.57;;
75680;SDS011;64294;49.176;16.626;2022-12-28T11:57:40;12.77;;;6.72;;
75680;SDS011;64294;49.176;16.626;2022-12-28T12:08:48;29.20;;;8.52;;
75680;SDS011;64294;49.176;16.626;2022-12-28T12:10:47;13.60;;;6.93;;
75680;SDS011;64294;49.176;16.626;2022-12-28T12:13:35;30.23;;;8.30;;
75680;SDS011;64294;49.176;16.626;2022-12-28T12:16:53;16.02;;;7.63;;
75680;SDS011;64294;49.176;16.626;2022-12-28T12:18:56;13.10;;;6.88;;
75680;SDS011;64294;49.176;16.626;2022-12-28T12:24:08;18.95;;;6.93;;
75680;SDS011;64294;49.176;16.626;2022-12-28T12:26:49;13.88;;;6.60;;
75680;SDS011;64294;49.176;16.626;2022-12-28T12:29:20;12.38;;;6.63;;
75680;SDS011;64294;49.176;16.626;2022-12-28T12:31:58;11.18;;;6.25;;
75680;SDS011;64294;49.176;16.626;2022-12-28T12:37:13;12.57;;;6.72;;
75680;SDS011;64294;49.176;16.626;2022-12-28T12:45:44;20.00;;;6.10;;
75680;SDS011;64294;49.176;16.626;2022-12-28T13:01:27;13.25;;;6.35;;
75680;SDS011;64294;49.176;16.626;2022-12-28T13:04:07;15.48;;;6.25;;
75680;SDS011;64294;49.176;16.626;2022-12-28T13:06:42;12.68;;;5.97;;
75680;SDS011;64294;49.176;16.626;2022-12-28T13:09:11;8.88;;;5.43;;
75680;SDS011;64294;49.176;16.626;2022-12-28T13:11:41;9.20;;;5.25;;
75680;SDS011;64294;49.176;16.626;2022-12-28T13:14:14;9.40;;;5.70;;
75680;SDS011;64294;49.176;16.626;2022-12-28T13:16:55;10.88;;;5.95;;
75680;SDS011;64294;49.176;16.626;2022-12-28T13:19:27;8.43;;;5.50;;
75680;SDS011;64294;49.176;16.626;2022-12-28T13:21:53;12.52;;;5.70;;
75680;SDS011;64294;49.176;16.626;2022-12-28T13:24:22;15.68;;;6.13;;
75680;SDS011;64294;49.176;16.626;2022-12-28T13:26:50;11.02;;;5.40;;
75680;SDS011;64294;49.176;16.626;2022-12-28T13:29:17;13.15;;;6.10;;
75680;SDS011;64294;49.176;16.626;2022-12-28T13:31:44;10.98;;;5.95;;
75680;SDS011;64294;49.176;16.626;2022-12-28T13:34:23;12.75;;;5.63;;
75680;SDS011;64294;49.176;16.626;2022-12-28T13:36:57;11.70;;;5.20;;
75680;SDS011;64294;49.176;16.626;2022-12-28T13:39:31;13.75;;;5.75;;
75680;SDS011;64294;49.176;16.626;2022-12-28T13:41:58;12.38;;;5.93;;
75680;SDS011;64294;49.176;16.626;2022-12-28T13:47:08;10.65;;;5.25;;
75680;SDS011;64294;49.176;16.626;2022-12-28T13:49:46;11.80;;;6.78;;
75680;SDS011;64294;49.176;16.626;2022-12-28T13:52:17;10.73;;;6.28;;
75680;SDS011;64294;49.176;16.626;2022-12-28T13:54:55;11.30;;;6.22;;
75680;SDS011;64294;49.176;16.626;2022-12-28T13:57:25;12.15;;;7.07;;
75680;SDS011;64294;49.176;16.626;2022-12-28T13:59:54;11.85;;;6.90;;
75680;SDS011;64294;49.176;16.626;2022-12-28T14:02:20;11.98;;;6.40;;
75680;SDS011;64294;49.176;16.626;2022-12-28T14:04:47;11.07;;;6.15;;
75680;SDS011;64294;49.176;16.626;2022-12-28T14:07:16;10.80;;;5.55;;
75680;SDS011;64294;49.176;16.626;2022-12-28T14:09:42;12.23;;;6.38;;
75680;SDS011;64294;49.176;16.626;2022-12-28T14:12:13;52.42;;;23.10;;
75680;SDS011;64294;49.176;16.626;2022-12-28T14:14:40;12.95;;;7.55;;
75680;SDS011;64294;49.176;16.626;2022-12-28T14:17:06;13.95;;;6.72;;
75680;SDS011;64294;49.176;16.626;2022-12-28T14:19:33;12.75;;;6.93;;
75680;SDS011;64294;49.176;16.626;2022-12-28T14:21:59;14.77;;;6.65;;
75680;SDS011;64294;49.176;16.626;2022-12-28T14:24:25;12.70;;;7.60;;
75680;SDS011;64294;49.176;16.626;2022-12-28T14:26:54;14.63;;;7.65;;
75680;SDS011;64294;49.176;16.626;2022-12-28T14:29:32;17.73;;;8.73;;
75680;SDS011;64294;49.176;16.626;2022-12-28T14:31:59;16.23;;;7.85;;
75680;SDS011;64294;49.176;16.626;2022-12-28T14:34:32;16.48;;;8.55;;
75680;SDS011;64294;49.176;16.626;2022-12-28T14:36:59;17.55;;;7.47;;
75680;SDS011;64294;49.176;16.626;2022-12-28T14:39:32;17.33;;;7.63;;
75680;SDS011;64294;49.176;16.626;2022-12-28T14:42:01;15.27;;;7.30;;
75680;SDS011;64294;49.176;16.626;2022-12-28T14:44:30;19.10;;;8.35;;
75680;SDS011;64294;49.176;16.626;2022-12-28T14:50:02;13.55;;;7.57;;
75680;SDS011;64294;49.176;16.626;2022-12-28T14:52:43;16.80;;;7.97;;
75680;SDS011;64294;49.176;16.626;2022-12-28T14:55:22;12.25;;;7.57;;
75680;SDS011;64294;49.176;16.626;2022-12-28T14:57:48;21.52;;;7.93;;
75680;SDS011;64294;49.176;16.626;2022-12-28T15:02:52;16.23;;;8.35;;
75680;SDS011;64294;49.176;16.626;2022-12-28T15:08:07;15.95;;;7.72;;
75680;SDS011;64294;49.176;16.626;2022-12-28T15:10:35;17.70;;;8.50;;
75680;SDS011;64294;49.176;16.626;2022-12-28T15:13:05;18.23;;;8.55;;
75680;SDS011;64294;49.176;16.626;2022-12-28T15:15:30;18.52;;;8.43;;
75680;SDS011;64294;49.176;16.626;2022-12-28T15:17:56;16.75;;;8.65;;
75680;SDS011;64294;49.176;16.626;2022-12-28T15:20:22;15.35;;;8.40;;
75680;SDS011;64294;49.176;16.626;2022-12-28T15:22:48;15.38;;;8.30;;
75680;SDS011;64294;49.176;16.626;2022-12-28T15:25:13;19.30;;;8.40;;
75680;SDS011;64294;49.176;16.626;2022-12-28T15:27:39;18.58;;;9.20;;
75680;SDS011;64294;49.176;16.626;2022-12-28T15:30:07;15.05;;;8.85;;
75680;SDS011;64294;49.176;16.626;2022-12-28T15:32:34;16.90;;;9.40;;
75680;SDS011;64294;49.176;16.626;2022-12-28T15:35:00;15.30;;;8.90;;
75680;SDS011;64294;49.176;16.626;2022-12-28T15:37:25;18.17;;;8.77;;
75680;SDS011;64294;49.176;16.626;2022-12-28T15:39:50;16.80;;;8.18;;
75680;SDS011;64294;49.176;16.626;2022-12-28T15:42:16;18.00;;;9.23;;
75680;SDS011;64294;49.176;16.626;2022-12-28T15:44:41;17.83;;;9.88;;
75680;SDS011;64294;49.176;16.626;2022-12-28T15:47:07;26.35;;;10.13;;
75680;SDS011;64294;49.176;16.626;2022-12-28T15:49:32;18.75;;;9.90;;
75680;SDS011;64294;49.176;16.626;2022-12-28T15:51:57;17.10;;;9.25;;
75680;SDS011;64294;49.176;16.626;2022-12-28T15:54:23;17.27;;;9.05;;
75680;SDS011;64294;49.176;16.626;2022-12-28T15:56:52;22.17;;;9.65;;
75680;SDS011;64294;49.176;16.626;2022-12-28T15:59:19;20.02;;;9.95;;
75680;SDS011;64294;49.176;16.626;2022-12-28T16:01:45;22.10;;;9.98;;
75680;SDS011;64294;49.176;16.626;2022-12-28T16:04:11;19.20;;;10.60;;
75680;SDS011;64294;49.176;16.626;2022-12-28T16:06:37;33.38;;;15.48;;
75680;SDS011;64294;49.176;16.626;2022-12-28T16:09:02;41.20;;;17.55;;
75680;SDS011;64294;49.176;16.626;2022-12-28T16:11:28;38.42;;;17.40;;
75680;SDS011;64294;49.176;16.626;2022-12-28T16:13:58;29.10;;;13.07;;